createdAt,value
2022-08-11T04:02:54.749Z,160.00
2022-08-11T04:07:54.690Z,252.00
2022-08-11T04:12:54.862Z,372.00
2022-08-11T04:18:01.616Z,532.00
2022-08-11T04:22:54.538Z,728.00
2022-08-11T04:27:54.475Z,960.00
2022-08-11T04:32:54.422Z,1232.00
2022-08-11T04:37:54.364Z,1536.00
2022-08-11T04:42:54.317Z,1852.00
2022-08-11T04:48:03.329Z,2184.00
2022-08-11T04:52:55.207Z,2496.00
2022-08-11T04:57:54.147Z,3372.00
2022-08-11T05:02:54.097Z,4076.00
2022-08-11T05:07:54.056Z,3380.00
2022-08-11T05:12:53.984Z,4428.00
2022-08-11T05:17:53.939Z,7200.00
2022-08-11T05:22:53.889Z,6568.00
2022-08-11T05:27:53.833Z,19616.00
2022-08-11T05:32:58.002Z,39648.00
2022-08-11T05:37:53.722Z,40832.00
2022-08-11T05:42:53.676Z,41696.00
2022-08-11T05:47:53.617Z,44320.00
2022-08-11T05:52:55.372Z,42560.00
2022-08-11T05:57:53.513Z,44736.00
2022-08-11T06:02:53.459Z,44128.00
2022-08-11T06:07:53.405Z,44960.00
2022-08-11T06:12:53.353Z,41440.00
2022-08-11T06:17:53.301Z,44544.00
2022-08-11T06:22:53.267Z,43168.00
2022-08-11T06:27:53.200Z,42176.00
2022-08-11T06:32:53.146Z,45120.00
2022-08-11T06:37:58.632Z,43008.00
2022-08-11T06:42:54.057Z,43200.00
2022-08-11T06:47:52.981Z,42304.00
2022-08-11T06:52:52.941Z,39584.00
2022-08-11T06:57:52.893Z,38656.00
2022-08-11T07:02:52.840Z,34656.00
2022-08-11T07:07:52.794Z,14412.00
2022-08-11T07:12:52.770Z,14360.00
2022-08-11T07:17:52.688Z,21248.00
2022-08-11T07:22:52.645Z,19712.00
2022-08-11T07:27:52.573Z,14692.00
2022-08-11T07:32:52.542Z,10924.00
2022-08-11T07:37:52.816Z,10372.00
2022-08-11T07:42:53.435Z,10060.00
2022-08-11T07:47:52.387Z,9704.00
2022-08-11T07:52:53.872Z,9328.00
2022-08-11T07:58:15.162Z,8836.00
2022-08-11T08:02:53.232Z,8372.00
2022-08-11T08:07:52.181Z,7916.00
2022-08-11T08:12:52.128Z,7644.00
2022-08-11T08:18:09.440Z,7412.00
2022-08-11T08:22:53.491Z,7228.00
2022-08-11T08:27:51.984Z,7056.00
2022-08-11T08:32:51.928Z,6976.00
2022-08-11T08:37:51.894Z,6872.00
2022-08-11T08:42:51.814Z,6780.00
2022-08-11T08:47:53.403Z,6648.00
2022-08-11T08:52:51.726Z,6556.00
2022-08-11T08:57:51.709Z,6460.00
2022-08-11T09:02:51.629Z,6388.00
2022-08-11T09:07:51.580Z,6360.00
2022-08-11T09:12:51.809Z,6352.00
2022-08-11T09:17:51.479Z,6352.00
2022-08-11T09:23:14.491Z,6360.00
2022-08-11T09:27:52.375Z,6392.00
2022-08-11T09:32:51.323Z,6428.00
2022-08-11T09:37:56.012Z,6476.00
2022-08-11T09:42:52.221Z,6520.00
2022-08-11T09:47:51.179Z,6520.00
2022-08-11T09:53:34.574Z,6548.00
2022-08-11T09:57:52.082Z,6556.00
2022-08-11T10:02:53.262Z,6556.00
2022-08-11T10:07:50.988Z,6628.00
2022-08-11T10:12:50.910Z,6640.00
2022-08-11T10:17:57.930Z,6660.00
2022-08-11T10:22:50.808Z,6716.00
2022-08-11T10:28:16.915Z,6688.00
2022-08-11T10:32:58.488Z,6672.00
2022-08-11T10:38:08.876Z,6732.00
2022-08-11T10:42:57.801Z,6720.00
2022-08-11T10:47:51.566Z,6664.00
2022-08-11T10:52:50.516Z,6660.00
2022-08-11T10:58:04.118Z,6500.00
2022-08-11T11:03:16.780Z,6420.00
2022-08-11T11:07:51.371Z,6356.00
2022-08-11T11:12:50.311Z,6216.00
2022-08-11T11:17:50.267Z,6196.00
2022-08-11T11:22:50.207Z,5960.00
2022-08-11T11:27:50.145Z,5860.00
2022-08-11T11:32:50.112Z,5896.00
2022-08-11T12:10:00.789Z,5776.00
2022-08-11T12:15:00.744Z,5732.00
2022-08-11T12:20:01.711Z,5724.00
2022-08-11T12:25:00.641Z,5712.00
2022-08-11T12:30:00.589Z,5740.00
2022-08-11T12:35:00.534Z,5744.00
2022-08-11T12:40:16.527Z,5720.00
2022-08-11T12:45:01.438Z,5728.00
2022-08-11T12:50:00.385Z,5704.00
2022-08-11T12:55:00.355Z,5696.00
2022-08-11T13:00:00.283Z,5680.00
2022-08-11T13:05:00.232Z,5656.00
2022-08-11T13:10:00.184Z,5636.00
2022-08-11T13:15:00.136Z,5628.00
2022-08-11T13:20:00.099Z,5600.00
2022-08-11T13:25:00.024Z,5592.00
2022-08-11T13:29:59.977Z,5616.00
2022-08-11T13:34:59.922Z,5568.00
2022-08-11T13:39:59.925Z,5592.00
2022-08-11T13:44:59.816Z,5552.00
2022-08-11T13:49:59.766Z,5564.00
2022-08-11T13:54:59.712Z,5520.00
2022-08-11T13:59:59.670Z,5460.00
2022-08-11T14:04:59.616Z,5464.00
2022-08-11T14:09:59.563Z,5544.00
2022-08-11T14:15:02.198Z,5488.00
2022-08-11T14:20:00.466Z,5452.00
2022-08-11T14:24:59.410Z,5472.00
2022-08-11T14:29:59.358Z,5524.00
2022-08-11T14:34:59.309Z,5512.00
2022-08-11T14:40:03.295Z,5388.00
2022-08-11T14:45:00.218Z,5408.00
2022-08-11T14:50:10.233Z,5392.00
2022-08-11T14:55:00.100Z,5420.00
2022-08-11T14:59:59.052Z,5384.00
2022-08-11T15:04:59.010Z,5368.00
2022-08-11T15:10:14.514Z,5352.00
2022-08-11T15:14:59.898Z,5348.00
2022-08-11T15:19:58.844Z,5236.00
2022-08-11T15:24:58.890Z,4936.00
2022-08-11T15:29:58.740Z,5196.00
2022-08-11T15:35:03.305Z,5164.00
2022-08-11T15:39:59.931Z,5076.00
2022-08-11T15:45:03.698Z,5012.00
2022-08-11T15:50:11.095Z,4988.00
2022-08-11T15:54:59.496Z,4908.00
2022-08-11T15:59:58.462Z,4696.00
2022-08-11T16:04:58.442Z,4632.00
2022-08-11T16:10:00.581Z,4732.00
2022-08-11T16:14:58.294Z,4656.00
2022-08-11T16:19:58.219Z,4584.00
2022-08-11T16:27:01.744Z,4508.00
2022-08-11T16:29:59.128Z,4440.00
2022-08-11T16:34:58.093Z,4320.00
2022-08-11T16:39:58.153Z,4180.00
2022-08-11T16:44:57.969Z,4048.00
2022-08-11T16:49:57.916Z,3872.00
2022-08-11T16:54:57.867Z,3688.00
2022-08-11T16:59:58.174Z,3572.00
2022-08-11T17:04:57.773Z,3400.00
2022-08-11T17:09:57.718Z,3240.00
2022-08-11T17:14:57.688Z,3032.00
2022-08-11T17:20:42.730Z,2716.00
2022-08-11T17:24:58.587Z,2464.00
2022-08-11T17:29:57.509Z,2272.00
2022-08-11T17:34:57.454Z,2140.00
2022-08-11T17:39:57.758Z,2012.00
2022-08-11T17:44:57.355Z,1892.00
2022-08-11T17:49:57.305Z,1792.00
2022-08-11T17:54:58.242Z,1692.00
2022-08-11T17:59:57.272Z,1600.00
2022-08-11T18:04:57.153Z,1496.00
2022-08-11T18:09:57.079Z,1380.00
2022-08-11T18:14:57.035Z,1280.00
2022-08-11T18:19:56.997Z,1164.00
2022-08-11T18:24:56.912Z,1036.00
2022-08-11T18:29:56.881Z,904.00
2022-08-11T18:34:56.884Z,768.00
2022-08-11T18:39:56.935Z,632.00
2022-08-11T18:44:56.705Z,504.00
2022-08-11T18:50:03.711Z,384.00
2022-08-11T18:54:57.604Z,280.00
2022-08-11T18:59:56.548Z,192.00
2022-08-11T19:04:56.511Z,120.00
2022-08-11T19:09:56.440Z,72.00
2022-08-11T19:14:56.399Z,40.00
2022-08-11T19:19:56.321Z,20.00
2022-08-11T19:24:56.290Z,8.00
2022-08-11T19:30:07.279Z,4.00
2022-08-11T19:34:57.258Z,0.00
2022-08-11T19:39:56.185Z,0.00
2022-08-11T19:44:56.077Z,0.00
2022-08-11T19:49:56.034Z,0.00
2022-08-11T19:54:55.973Z,0.00
2022-08-11T19:59:55.926Z,0.00
2022-08-11T20:04:55.854Z,0.00
2022-08-11T20:10:04.917Z,0.00
2022-08-11T20:14:56.770Z,0.00
2022-08-11T20:19:57.084Z,0.00
2022-08-11T20:24:56.652Z,0.00
2022-08-11T20:29:55.609Z,0.00
2022-08-11T20:34:55.558Z,0.00
2022-08-11T20:39:55.596Z,0.00
2022-08-11T20:44:55.461Z,0.00
2022-08-11T20:49:58.560Z,0.00
2022-08-11T20:54:55.339Z,0.00
2022-08-11T20:59:56.720Z,0.00
2022-08-11T21:04:55.415Z,0.00
2022-08-11T21:10:01.091Z,0.00
2022-08-11T21:14:56.125Z,0.00
2022-08-11T21:20:01.637Z,0.00
2022-08-11T21:24:56.013Z,0.00
2022-08-11T21:29:54.964Z,0.00
2022-08-11T21:34:54.904Z,0.00
2022-08-11T21:39:54.993Z,0.00
2022-08-11T21:44:54.804Z,0.00
2022-08-11T21:49:54.749Z,0.00
2022-08-11T21:54:54.690Z,0.00
2022-08-11T21:59:54.639Z,0.00
2022-08-11T22:04:54.586Z,0.00
2022-08-11T22:09:54.539Z,0.00
2022-08-11T22:14:54.482Z,0.00
2022-08-11T22:20:01.493Z,0.00
2022-08-11T22:24:54.375Z,0.00
2022-08-11T22:29:54.317Z,0.00
2022-08-11T22:34:54.266Z,0.00
2022-08-11T22:39:59.935Z,0.00
2022-08-11T22:44:54.188Z,0.00
2022-08-11T22:49:57.172Z,0.00
2022-08-11T22:54:54.048Z,0.00
2022-08-11T22:59:53.998Z,0.00
2022-08-11T23:04:53.942Z,0.00
2022-08-11T23:09:53.891Z,0.00
2022-08-11T23:14:53.836Z,0.00
2022-08-11T23:19:59.994Z,0.00
2022-08-11T23:24:54.726Z,0.00
2022-08-11T23:29:53.668Z,0.00
